sensor_id;sensor_type;location;lat;lon;timestamp;pressure;altitude;pressure_sealevel;temperature;humidity
51243;BME280;37812;47.556;18.718;2022-07-06T00:01:43;99638.84;;;17.28;96.49
51243;BME280;37812;47.556;18.718;2022-07-06T00:04:09;99644.03;;;17.22;97.08
51243;BME280;37812;47.556;18.718;2022-07-06T00:06:35;99644.84;;;17.13;97.31
51243;BME280;37812;47.556;18.718;2022-07-06T00:09:03;99639.59;;;17.13;97.22
51243;BME280;37812;47.556;18.718;2022-07-06T00:11:29;99638.81;;;17.22;96.79
51243;BME280;37812;47.556;18.718;2022-07-06T00:13:55;99633.50;;;17.13;97.34
51243;BME280;37812;47.556;18.718;2022-07-06T00:16:22;99626.41;;;17.00;98.00
51243;BME280;37812;47.556;18.718;2022-07-06T00:18:48;99626.38;;;16.97;98.34
51243;BME280;37812;47.556;18.718;2022-07-06T00:21:15;99627.41;;;17.17;97.36
51243;BME280;37812;47.556;18.718;2022-07-06T00:23:41;99626.47;;;17.09;97.32
51243;BME280;37812;47.556;18.718;2022-07-06T00:26:07;99624.78;;;17.14;97.48
51243;BME280;37812;47.556;18.718;2022-07-06T00:28:33;99631.56;;;16.93;98.75
51243;BME280;37812;47.556;18.718;2022-07-06T00:30:59;99628.13;;;16.96;98.67
51243;BME280;37812;47.556;18.718;2022-07-06T00:33:25;99628.16;;;17.01;98.60
51243;BME280;37812;47.556;18.718;2022-07-06T00:35:51;99638.66;;;17.07;97.89
51243;BME280;37812;47.556;18.718;2022-07-06T00:38:17;99638.69;;;17.10;96.96
51243;BME280;37812;47.556;18.718;2022-07-06T00:40:43;99640.41;;;17.05;97.35
51243;BME280;37812;47.556;18.718;2022-07-06T00:43:09;99643.91;;;17.07;97.54
51243;BME280;37812;47.556;18.718;2022-07-06T00:45:34;99638.66;;;17.07;96.99
51243;BME280;37812;47.556;18.718;2022-07-06T00:48:01;99643.03;;;17.08;96.59
51243;BME280;37812;47.556;18.718;2022-07-06T00:50:27;99635.19;;;17.09;97.59
51243;BME280;37812;47.556;18.718;2022-07-06T00:52:56;99638.66;;;17.07;97.35
51243;BME280;37812;47.556;18.718;2022-07-06T00:55:25;99638.66;;;17.04;96.92
51243;BME280;37812;47.556;18.718;2022-07-06T00:57:52;99635.25;;;17.14;96.29
51243;BME280;37812;47.556;18.718;2022-07-06T01:00:20;99631.75;;;17.15;96.28
51243;BME280;37812;47.556;18.718;2022-07-06T01:02:47;99636.91;;;17.06;96.91
51243;BME280;37812;47.556;18.718;2022-07-06T01:05:14;99630.88;;;17.14;96.29
51243;BME280;37812;47.556;18.718;2022-07-06T01:07:42;99636.13;;;17.16;95.96
51243;BME280;37812;47.556;18.718;2022-07-06T01:10:10;99633.44;;;17.05;96.12
51243;BME280;37812;47.556;18.718;2022-07-06T01:12:38;99636.28;;;17.34;94.75
51243;BME280;37812;47.556;18.718;2022-07-06T01:15:07;99645.97;;;17.47;92.64
51243;BME280;37812;47.556;18.718;2022-07-06T01:17:33;99655.38;;;17.22;95.23
51243;BME280;37812;47.556;18.718;2022-07-06T01:20:25;99650.19;;;17.26;94.51
51243;BME280;37812;47.556;18.718;2022-07-06T01:22:53;99654.56;;;17.31;94.20
51243;BME280;37812;47.556;18.718;2022-07-06T01:25:20;99656.47;;;17.54;92.73
51243;BME280;37812;47.556;18.718;2022-07-06T01:27:46;99658.22;;;17.48;92.41
51243;BME280;37812;47.556;18.718;2022-07-06T01:30:15;99654.62;;;17.40;92.99
51243;BME280;37812;47.556;18.718;2022-07-06T01:32:42;99662.72;;;16.72;97.55
51243;BME280;37812;47.556;18.718;2022-07-06T01:35:13;99662.56;;;16.63;99.18
51243;BME280;37812;47.556;18.718;2022-07-06T01:37:39;99666.63;;;17.14;95.61
51243;BME280;37812;47.556;18.718;2022-07-06T01:40:08;99666.50;;;17.02;96.04
51243;BME280;37812;47.556;18.718;2022-07-06T01:42:34;99678.31;;;16.66;97.94
51243;BME280;37812;47.556;18.718;2022-07-06T01:45:01;99676.41;;;16.56;98.76
51243;BME280;37812;47.556;18.718;2022-07-06T01:47:27;99677.88;;;16.31;100.00
51243;BME280;37812;47.556;18.718;2022-07-06T01:49:53;99670.91;;;16.31;100.00
51243;BME280;37812;47.556;18.718;2022-07-06T01:52:20;99665.97;;;16.56;100.00
51243;BME280;37812;47.556;18.718;2022-07-06T01:54:46;99660.81;;;16.59;99.81
51243;BME280;37812;47.556;18.718;2022-07-06T01:57:12;99669.78;;;16.79;98.60
51243;BME280;37812;47.556;18.718;2022-07-06T01:59:38;99657.69;;;16.90;97.90
51243;BME280;37812;47.556;18.718;2022-07-06T02:02:04;99661.09;;;16.83;97.68
51243;BME280;37812;47.556;18.718;2022-07-06T02:04:31;99665.50;;;16.89;98.25
51243;BME280;37812;47.556;18.718;2022-07-06T02:06:57;99663.06;;;17.06;96.71
51243;BME280;37812;47.556;18.718;2022-07-06T02:09:23;99669.22;;;17.11;96.21
51243;BME280;37812;47.556;18.718;2022-07-06T02:11:49;99669.22;;;17.14;95.35
51243;BME280;37812;47.556;18.718;2022-07-06T02:14:15;99670.19;;;17.22;95.29
51243;BME280;37812;47.556;18.718;2022-07-06T02:16:41;99671.84;;;17.14;95.51
51243;BME280;37812;47.556;18.718;2022-07-06T02:19:07;99671.84;;;17.14;95.78
51243;BME280;37812;47.556;18.718;2022-07-06T02:21:33;99678.00;;;17.20;95.23
51243;BME280;37812;47.556;18.718;2022-07-06T02:23:58;99696.53;;;17.43;93.27
51243;BME280;37812;47.556;18.718;2022-07-06T02:26:24;99692.75;;;17.14;94.66
51243;BME280;37812;47.556;18.718;2022-07-06T02:28:50;99690.34;;;17.34;94.40
51243;BME280;37812;47.556;18.718;2022-07-06T02:31:16;99695.53;;;17.31;94.03
51243;BME280;37812;47.556;18.718;2022-07-06T02:33:42;99702.41;;;17.19;94.37
51243;BME280;37812;47.556;18.718;2022-07-06T02:36:08;99708.16;;;16.86;96.67
51243;BME280;37812;47.556;18.718;2022-07-06T02:38:34;99709.59;;;16.63;99.45
51243;BME280;37812;47.556;18.718;2022-07-06T02:41:00;99709.00;;;16.81;98.40
51243;BME280;37812;47.556;18.718;2022-07-06T02:43:26;99715.94;;;16.80;97.59
51243;BME280;37812;47.556;18.718;2022-07-06T02:45:52;99718.16;;;16.50;99.66
51243;BME280;37812;47.556;18.718;2022-07-06T02:48:18;99728.56;;;16.47;100.00
51243;BME280;37812;47.556;18.718;2022-07-06T02:50:47;99732.13;;;16.52;100.00
51243;BME280;37812;47.556;18.718;2022-07-06T02:53:13;99722.09;;;16.85;97.79
51243;BME280;37812;47.556;18.718;2022-07-06T02:55:39;99733.03;;;17.31;94.42
51243;BME280;37812;47.556;18.718;2022-07-06T02:58:05;99736.69;;;17.51;92.17
51243;BME280;37812;47.556;18.718;2022-07-06T03:00:31;99737.50;;;17.46;92.43
51243;BME280;37812;47.556;18.718;2022-07-06T03:02:57;99741.50;;;17.06;94.51
51243;BME280;37812;47.556;18.718;2022-07-06T03:05:23;99742.37;;;17.08;95.21
51243;BME280;37812;47.556;18.718;2022-07-06T03:07:48;99745.12;;;17.20;94.33
51243;BME280;37812;47.556;18.718;2022-07-06T03:10:14;99751.09;;;17.10;95.04
51243;BME280;37812;47.556;18.718;2022-07-06T03:12:40;99750.22;;;17.08;94.94
51243;BME280;37812;47.556;18.718;2022-07-06T03:15:07;99751.78;;;16.93;96.21
51243;BME280;37812;47.556;18.718;2022-07-06T03:17:36;99748.44;;;17.04;95.37
51243;BME280;37812;47.556;18.718;2022-07-06T03:20:04;99748.34;;;16.94;95.86
51243;BME280;37812;47.556;18.718;2022-07-06T03:22:30;99749.44;;;17.16;94.61
51243;BME280;37812;47.556;18.718;2022-07-06T03:24:56;99757.34;;;17.21;93.79
51243;BME280;37812;47.556;18.718;2022-07-06T03:27:22;99756.38;;;17.11;94.61
51243;BME280;37812;47.556;18.718;2022-07-06T03:29:48;99753.00;;;17.23;93.48
51243;BME280;37812;47.556;18.718;2022-07-06T03:32:13;99766.16;;;17.32;93.26
51243;BME280;37812;47.556;18.718;2022-07-06T03:34:39;99752.13;;;17.24;93.52
51243;BME280;37812;47.556;18.718;2022-07-06T03:37:05;99755.75;;;17.38;92.84
51243;BME280;37812;47.556;18.718;2022-07-06T03:39:32;99760.84;;;17.23;93.09
51243;BME280;37812;47.556;18.718;2022-07-06T03:41:58;99757.47;;;17.33;92.93
51243;BME280;37812;47.556;18.718;2022-07-06T03:44:24;99759.94;;;17.21;93.34
51243;BME280;37812;47.556;18.718;2022-07-06T03:46:50;99754.22;;;17.60;91.23
51243;BME280;37812;47.556;18.718;2022-07-06T03:49:16;99756.72;;;18.70;84.92
51243;BME280;37812;47.556;18.718;2022-07-06T03:51:42;99749.87;;;19.13;81.48
51243;BME280;37812;47.556;18.718;2022-07-06T03:54:08;99740.31;;;19.36;80.40
51243;BME280;37812;47.556;18.718;2022-07-06T03:56:34;99740.91;;;21.02;71.96
51243;BME280;37812;47.556;18.718;2022-07-06T03:59:01;99750.44;;;22.33;66.41
51243;BME280;37812;47.556;18.718;2022-07-06T04:01:28;99755.72;;;23.66;60.80
51243;BME280;37812;47.556;18.718;2022-07-06T04:03:55;99741.50;;;24.70;55.99
51243;BME280;37812;47.556;18.718;2022-07-06T04:06:21;99737.56;;;25.30;53.97
51243;BME280;37812;47.556;18.718;2022-07-06T04:08:48;99738.16;;;25.42;52.88
51243;BME280;37812;47.556;18.718;2022-07-06T04:11:13;99730.59;;;25.26;53.48
51243;BME280;37812;47.556;18.718;2022-07-06T04:13:39;99731.28;;;25.71;51.89
51243;BME280;37812;47.556;18.718;2022-07-06T04:16:06;99733.91;;;26.06;50.97
51243;BME280;37812;47.556;18.718;2022-07-06T04:18:32;99731.78;;;26.83;48.71
51243;BME280;37812;47.556;18.718;2022-07-06T04:20:58;99721.97;;;26.86;48.13
51243;BME280;37812;47.556;18.718;2022-07-06T04:23:24;99713.91;;;27.19;47.04
51243;BME280;37812;47.556;18.718;2022-07-06T04:25:50;99706.72;;;27.49;46.18
51243;BME280;37812;47.556;18.718;2022-07-06T04:28:16;99708.25;;;27.56;45.67
51243;BME280;37812;47.556;18.718;2022-07-06T04:30:43;99698.00;;;27.46;45.99
51243;BME280;37812;47.556;18.718;2022-07-06T04:33:09;99700.09;;;27.08;46.69
51243;BME280;37812;47.556;18.718;2022-07-06T04:35:35;99706.22;;;27.64;45.80
51243;BME280;37812;47.556;18.718;2022-07-06T04:38:00;99698.31;;;27.63;45.67
51243;BME280;37812;47.556;18.718;2022-07-06T04:40:26;99705.56;;;26.72;48.23
51243;BME280;37812;47.556;18.718;2022-07-06T04:42:52;99702.69;;;27.90;44.85
51243;BME280;37812;47.556;18.718;2022-07-06T04:45:18;99701.88;;;27.62;45.52
51243;BME280;37812;47.556;18.718;2022-07-06T04:47:45;99700.16;;;26.46;48.56
51243;BME280;37812;47.556;18.718;2022-07-06T04:50:11;99705.34;;;27.37;46.11
51243;BME280;37812;47.556;18.718;2022-07-06T04:52:37;99700.66;;;28.48;43.45
51243;BME280;37812;47.556;18.718;2022-07-06T04:55:04;99715.84;;;28.20;43.80
51243;BME280;37812;47.556;18.718;2022-07-06T04:57:32;99724.13;;;28.37;43.44
51243;BME280;37812;47.556;18.718;2022-07-06T04:59:58;99721.16;;;27.95;45.03
51243;BME280;37812;47.556;18.718;2022-07-06T05:02:23;99720.75;;;29.26;42.16
51243;BME280;37812;47.556;18.718;2022-07-06T05:04:50;99729.56;;;28.34;43.05
51243;BME280;37812;47.556;18.718;2022-07-06T05:07:16;99724.78;;;27.66;44.84
51243;BME280;37812;47.556;18.718;2022-07-06T05:09:42;99728.66;;;29.93;40.12
51243;BME280;37812;47.556;18.718;2022-07-06T05:12:09;99728.28;;;30.02;39.63
51243;BME280;37812;47.556;18.718;2022-07-06T05:14:35;99729.50;;;29.07;41.57
51243;BME280;37812;47.556;18.718;2022-07-06T05:17:02;99726.25;;;28.99;41.61
51243;BME280;37812;47.556;18.718;2022-07-06T05:19:28;99730.59;;;28.04;43.82
51243;BME280;37812;47.556;18.718;2022-07-06T05:21:54;99729.47;;;28.11;43.94
51243;BME280;37812;47.556;18.718;2022-07-06T05:24:20;99726.34;;;28.73;42.36
51243;BME280;37812;47.556;18.718;2022-07-06T05:26:46;99737.59;;;29.04;41.72
51243;BME280;37812;47.556;18.718;2022-07-06T05:29:12;99734.78;;;30.17;39.34
51243;BME280;37812;47.556;18.718;2022-07-06T05:31:38;99739.59;;;29.87;39.85
51243;BME280;37812;47.556;18.718;2022-07-06T05:34:04;99730.47;;;29.27;40.76
51243;BME280;37812;47.556;18.718;2022-07-06T05:36:30;99742.41;;;28.95;41.61
51243;BME280;37812;47.556;18.718;2022-07-06T05:38:56;99748.06;;;29.76;39.91
51243;BME280;37812;47.556;18.718;2022-07-06T05:41:22;99745.94;;;29.41;40.47
51243;BME280;37812;47.556;18.718;2022-07-06T05:43:48;99754.06;;;27.92;43.42
51243;BME280;37812;47.556;18.718;2022-07-06T05:46:14;99756.28;;;28.56;42.46
51243;BME280;37812;47.556;18.718;2022-07-06T05:48:40;99762.19;;;29.78;40.16
51243;BME280;37812;47.556;18.718;2022-07-06T05:51:24;99769.28;;;29.34;40.26
51243;BME280;37812;47.556;18.718;2022-07-06T05:53:51;99776.53;;;29.08;41.03
51243;BME280;37812;47.556;18.718;2022-07-06T05:56:17;99778.38;;;29.06;41.07
51243;BME280;37812;47.556;18.718;2022-07-06T05:58:43;99776.59;;;29.52;40.12
51243;BME280;37812;47.556;18.718;2022-07-06T06:01:09;99774.38;;;29.40;40.16
51243;BME280;37812;47.556;18.718;2022-07-06T06:03:36;99778.69;;;29.88;39.45
51243;BME280;37812;47.556;18.718;2022-07-06T06:06:02;99772.37;;;29.69;40.09
51243;BME280;37812;47.556;18.718;2022-07-06T06:08:28;99775.25;;;31.99;35.83
51243;BME280;37812;47.556;18.718;2022-07-06T06:10:54;99775.44;;;31.77;35.42
51243;BME280;37812;47.556;18.718;2022-07-06T06:13:20;99786.00;;;30.86;37.10
51243;BME280;37812;47.556;18.718;2022-07-06T06:15:45;99780.50;;;31.84;36.22
51243;BME280;37812;47.556;18.718;2022-07-06T06:18:11;99781.56;;;30.46;38.03
51243;BME280;37812;47.556;18.718;2022-07-06T06:20:38;99784.19;;;30.87;37.11
51243;BME280;37812;47.556;18.718;2022-07-06T06:23:03;99773.63;;;31.59;35.93
51243;BME280;37812;47.556;18.718;2022-07-06T06:25:36;99773.47;;;31.45;36.36
51243;BME280;37812;47.556;18.718;2022-07-06T06:28:07;99765.88;;;32.60;34.57
51243;BME280;37812;47.556;18.718;2022-07-06T06:30:33;99779.34;;;32.74;34.44
51243;BME280;37812;47.556;18.718;2022-07-06T06:35:47;99772.31;;;33.54;32.38
51243;BME280;37812;47.556;18.718;2022-07-06T06:38:14;99780.50;;;33.19;32.89
51243;BME280;37812;47.556;18.718;2022-07-06T06:40:40;99779.13;;;32.46;34.17
51243;BME280;37812;47.556;18.718;2022-07-06T06:43:07;99779.56;;;32.19;34.99
51243;BME280;37812;47.556;18.718;2022-07-06T06:45:33;99771.19;;;33.89;32.09
51243;BME280;37812;47.556;18.718;2022-07-06T06:47:59;99765.03;;;33.56;32.79
51243;BME280;37812;47.556;18.718;2022-07-06T06:50:25;99780.16;;;33.25;33.52
51243;BME280;37812;47.556;18.718;2022-07-06T06:52:51;99775.97;;;34.59;30.85
51243;BME280;37812;47.556;18.718;2022-07-06T06:55:18;99778.41;;;33.87;31.52
51243;BME280;37812;47.556;18.718;2022-07-06T06:57:44;99779.41;;;32.22;34.63
51243;BME280;37812;47.556;18.718;2022-07-06T07:00:10;99776.72;;;31.88;35.27
51243;BME280;37812;47.556;18.718;2022-07-06T07:02:37;99773.31;;;31.48;36.01
51243;BME280;37812;47.556;18.718;2022-07-06T07:05:05;99779.19;;;30.59;37.57
51243;BME280;37812;47.556;18.718;2022-07-06T07:07:31;99788.88;;;30.61;38.01
51243;BME280;37812;47.556;18.718;2022-07-06T07:09:57;99796.31;;;31.52;36.83
51243;BME280;37812;47.556;18.718;2022-07-06T07:12:23;99772.44;;;31.47;35.96
51243;BME280;37812;47.556;18.718;2022-07-06T07:14:49;99766.03;;;31.33;36.31
51243;BME280;37812;47.556;18.718;2022-07-06T07:17:15;99774.06;;;32.40;34.68
51243;BME280;37812;47.556;18.718;2022-07-06T07:19:41;99770.53;;;31.68;35.62
51243;BME280;37812;47.556;18.718;2022-07-06T07:22:07;99765.94;;;31.53;36.09
51243;BME280;37812;47.556;18.718;2022-07-06T07:24:33;99769.75;;;32.37;34.82
51243;BME280;37812;47.556;18.718;2022-07-06T07:26:59;99767.34;;;32.99;33.36
51243;BME280;37812;47.556;18.718;2022-07-06T07:29:25;99772.87;;;33.27;32.65
51243;BME280;37812;47.556;18.718;2022-07-06T07:31:51;99774.81;;;31.90;34.66
51243;BME280;37812;47.556;18.718;2022-07-06T07:34:17;99764.63;;;31.43;35.88
51243;BME280;37812;47.556;18.718;2022-07-06T07:36:43;99777.53;;;32.07;35.69
51243;BME280;37812;47.556;18.718;2022-07-06T07:39:09;99772.41;;;33.52;32.48
51243;BME280;37812;47.556;18.718;2022-07-06T07:41:35;99771.69;;;33.17;34.11
51243;BME280;37812;47.556;18.718;2022-07-06T07:44:01;99773.06;;;33.24;32.65
51243;BME280;37812;47.556;18.718;2022-07-06T07:46:27;99767.22;;;33.49;32.81
51243;BME280;37812;47.556;18.718;2022-07-06T07:48:53;99777.88;;;34.56;31.04
51243;BME280;37812;47.556;18.718;2022-07-06T07:51:19;99771.47;;;32.88;33.10
51243;BME280;37812;47.556;18.718;2022-07-06T07:53:45;99777.75;;;33.21;32.51
51243;BME280;37812;47.556;18.718;2022-07-06T07:56:12;99788.03;;;32.79;33.13
51243;BME280;37812;47.556;18.718;2022-07-06T07:58:38;99784.16;;;33.65;32.99
51243;BME280;37812;47.556;18.718;2022-07-06T08:01:04;99785.63;;;33.24;32.87
51243;BME280;37812;47.556;18.718;2022-07-06T08:03:30;99779.44;;;34.00;31.01
51243;BME280;37812;47.556;18.718;2022-07-06T08:05:57;99784.62;;;34.04;30.76
51243;BME280;37812;47.556;18.718;2022-07-06T08:08:23;99800.78;;;34.48;30.68
51243;BME280;37812;47.556;18.718;2022-07-06T08:10:49;99799.69;;;34.66;30.26
51243;BME280;37812;47.556;18.718;2022-07-06T08:13:15;99801.09;;;34.43;30.48
51243;BME280;37812;47.556;18.718;2022-07-06T08:15:42;99811.75;;;32.87;31.84
51243;BME280;37812;47.556;18.718;2022-07-06T08:18:09;99798.66;;;32.48;32.57
51243;BME280;37812;47.556;18.718;2022-07-06T08:20:37;99820.34;;;32.76;32.20
51243;BME280;37812;47.556;18.718;2022-07-06T08:23:04;99812.69;;;33.19;31.01
51243;BME280;37812;47.556;18.718;2022-07-06T08:25:31;99820.38;;;33.09;32.04
51243;BME280;37812;47.556;18.718;2022-07-06T08:27:57;99811.47;;;33.09;32.61
51243;BME280;37812;47.556;18.718;2022-07-06T08:30:24;99819.09;;;32.66;31.50
51243;BME280;37812;47.556;18.718;2022-07-06T08:32:51;99811.41;;;32.60;32.51
51243;BME280;37812;47.556;18.718;2022-07-06T08:35:16;99811.13;;;33.15;30.96
51243;BME280;37812;47.556;18.718;2022-07-06T08:37:43;99816.31;;;32.52;31.98
51243;BME280;37812;47.556;18.718;2022-07-06T08:40:09;99821.38;;;33.56;31.67
51243;BME280;37812;47.556;18.718;2022-07-06T08:42:36;99831.44;;;33.03;30.78
51243;BME280;37812;47.556;18.718;2022-07-06T08:45:04;99827.47;;;33.43;30.63
51243;BME280;37812;47.556;18.718;2022-07-06T08:47:31;99822.41;;;32.71;31.09
51243;BME280;37812;47.556;18.718;2022-07-06T08:49:57;99827.06;;;31.98;33.14
51243;BME280;37812;47.556;18.718;2022-07-06T08:52:24;99821.97;;;31.73;32.97
51243;BME280;37812;47.556;18.718;2022-07-06T08:54:50;99823.00;;;31.90;32.41
51243;BME280;37812;47.556;18.718;2022-07-06T08:57:16;99822.56;;;33.34;29.82
51243;BME280;37812;47.556;18.718;2022-07-06T08:59:42;99814.91;;;34.21;28.94
51243;BME280;37812;47.556;18.718;2022-07-06T09:02:10;99821.09;;;34.08;29.47
51243;BME280;37812;47.556;18.718;2022-07-06T09:04:36;99807.94;;;32.41;32.97
51243;BME280;37812;47.556;18.718;2022-07-06T09:07:03;99814.72;;;32.48;32.03
51243;BME280;37812;47.556;18.718;2022-07-06T09:09:29;99807.59;;;33.30;30.67
51243;BME280;37812;47.556;18.718;2022-07-06T09:11:58;99811.88;;;33.97;29.99
51243;BME280;37812;47.556;18.718;2022-07-06T09:14:24;99810.22;;;34.25;29.25
51243;BME280;37812;47.556;18.718;2022-07-06T09:17:05;99803.56;;;33.55;28.98
51243;BME280;37812;47.556;18.718;2022-07-06T09:19:32;99807.75;;;33.27;30.40
51243;BME280;37812;47.556;18.718;2022-07-06T09:21:59;99807.88;;;33.41;29.79
51243;BME280;37812;47.556;18.718;2022-07-06T09:24:25;99811.50;;;32.74;31.09
51243;BME280;37812;47.556;18.718;2022-07-06T09:26:56;99804.53;;;33.05;29.76
51243;BME280;37812;47.556;18.718;2022-07-06T09:29:30;99795.87;;;32.15;30.13
51243;BME280;37812;47.556;18.718;2022-07-06T09:31:58;99798.13;;;31.88;30.68
51243;BME280;37812;47.556;18.718;2022-07-06T09:34:24;99790.50;;;31.61;33.18
51243;BME280;37812;47.556;18.718;2022-07-06T09:36:50;99805.75;;;32.99;29.54
51243;BME280;37812;47.556;18.718;2022-07-06T09:39:28;99789.09;;;32.42;31.01
51243;BME280;37812;47.556;18.718;2022-07-06T09:41:56;99782.06;;;32.57;29.00
51243;BME280;37812;47.556;18.718;2022-07-06T09:44:29;99795.41;;;31.70;29.46
51243;BME280;37812;47.556;18.718;2022-07-06T09:46:57;99790.53;;;31.23;30.60
51243;BME280;37812;47.556;18.718;2022-07-06T09:49:23;99790.19;;;30.92;30.65
51243;BME280;37812;47.556;18.718;2022-07-06T09:51:56;99802.81;;;31.27;31.02
51243;BME280;37812;47.556;18.718;2022-07-06T09:54:23;99797.38;;;31.48;29.49
51243;BME280;37812;47.556;18.718;2022-07-06T09:56:50;99798.84;;;31.91;28.95
51243;BME280;37812;47.556;18.718;2022-07-06T09:59:27;99796.47;;;31.30;29.48
51243;BME280;37812;47.556;18.718;2022-07-06T10:01:58;99806.94;;;30.77;30.41
51243;BME280;37812;47.556;18.718;2022-07-06T10:04:26;99811.06;;;30.84;30.95
51243;BME280;37812;47.556;18.718;2022-07-06T10:06:53;99810.66;;;30.72;30.29
51243;BME280;37812;47.556;18.718;2022-07-06T10:09:20;99809.09;;;30.87;30.03
51243;BME280;37812;47.556;18.718;2022-07-06T10:14:18;99815.94;;;30.54;30.48
51243;BME280;37812;47.556;18.718;2022-07-06T10:16:46;99807.97;;;30.11;30.47
51243;BME280;37812;47.556;18.718;2022-07-06T10:19:14;99814.12;;;30.34;30.43
51243;BME280;37812;47.556;18.718;2022-07-06T10:21:41;99807.19;;;30.30;30.11
51243;BME280;37812;47.556;18.718;2022-07-06T10:24:08;99807.31;;;30.27;29.08
51243;BME280;37812;47.556;18.718;2022-07-06T10:26:36;99806.88;;;30.37;30.35
51243;BME280;37812;47.556;18.718;2022-07-06T10:29:03;99803.59;;;30.71;30.80
51243;BME280;37812;47.556;18.718;2022-07-06T10:31:31;99798.88;;;31.16;29.15
51243;BME280;37812;47.556;18.718;2022-07-06T10:33:59;99803.31;;;30.78;28.35
51243;BME280;37812;47.556;18.718;2022-07-06T10:36:25;99817.75;;;30.73;27.57
51243;BME280;37812;47.556;18.718;2022-07-06T10:38:52;99813.06;;;30.38;30.00
51243;BME280;37812;47.556;18.718;2022-07-06T10:41:30;99801.31;;;30.42;28.47
51243;BME280;37812;47.556;18.718;2022-07-06T10:43:56;99816.09;;;30.29;28.67
51243;BME280;37812;47.556;18.718;2022-07-06T10:46:28;99821.91;;;29.96;29.06
51243;BME280;37812;47.556;18.718;2022-07-06T10:48:54;99816.66;;;30.16;28.19
51243;BME280;37812;47.556;18.718;2022-07-06T10:51:25;99811.84;;;30.25;28.14
51243;BME280;37812;47.556;18.718;2022-07-06T10:53:56;99818.69;;;30.52;29.31
51243;BME280;37812;47.556;18.718;2022-07-06T10:56:36;99820.53;;;30.91;27.97
51243;BME280;37812;47.556;18.718;2022-07-06T10:59:03;99821.34;;;30.72;27.52
51243;BME280;37812;47.556;18.718;2022-07-06T11:01:35;99819.66;;;30.50;27.86
51243;BME280;37812;47.556;18.718;2022-07-06T11:06:31;99821.06;;;30.79;28.58
51243;BME280;37812;47.556;18.718;2022-07-06T11:09:02;99810.25;;;30.41;28.41
51243;BME280;37812;47.556;18.718;2022-07-06T11:16:59;99820.94;;;30.82;27.15
51243;BME280;37812;47.556;18.718;2022-07-06T11:19:27;99827.22;;;30.60;26.32
51243;BME280;37812;47.556;18.718;2022-07-06T11:24:29;99828.41;;;30.33;27.99
51243;BME280;37812;47.556;18.718;2022-07-06T11:26:56;99831.63;;;31.21;27.23
51243;BME280;37812;47.556;18.718;2022-07-06T11:29:25;99831.25;;;31.66;24.82
51243;BME280;37812;47.556;18.718;2022-07-06T11:31:53;99837.22;;;31.54;23.81
51243;BME280;37812;47.556;18.718;2022-07-06T11:34:30;99836.66;;;31.29;22.05
51243;BME280;37812;47.556;18.718;2022-07-06T11:36:58;99847.94;;;30.76;22.35
51243;BME280;37812;47.556;18.718;2022-07-06T11:39:32;99849.78;;;29.89;24.52
51243;BME280;37812;47.556;18.718;2022-07-06T11:42:00;99848.84;;;30.54;23.85
51243;BME280;37812;47.556;18.718;2022-07-06T11:44:26;99852.47;;;30.73;23.38
51243;BME280;37812;47.556;18.718;2022-07-06T11:46:52;99850.63;;;30.76;25.41
51243;BME280;37812;47.556;18.718;2022-07-06T11:49:20;99863.97;;;30.76;25.57
51243;BME280;37812;47.556;18.718;2022-07-06T11:51:46;99852.81;;;29.80;26.79
51243;BME280;37812;47.556;18.718;2022-07-06T11:54:18;99851.38;;;30.57;27.56
51243;BME280;37812;47.556;18.718;2022-07-06T11:56:52;99839.56;;;32.15;26.42
51243;BME280;37812;47.556;18.718;2022-07-06T11:59:23;99835.78;;;32.02;24.76
51243;BME280;37812;47.556;18.718;2022-07-06T12:02:00;99837.00;;;31.19;25.67
51243;BME280;37812;47.556;18.718;2022-07-06T12:04:27;99831.66;;;31.95;25.58
51243;BME280;37812;47.556;18.718;2022-07-06T12:06:53;99823.50;;;32.15;24.64
51243;BME280;37812;47.556;18.718;2022-07-06T12:09:19;99834.75;;;31.68;26.66
51243;BME280;37812;47.556;18.718;2022-07-06T12:11:46;99830.25;;;31.88;24.96
51243;BME280;37812;47.556;18.718;2022-07-06T12:16:40;99830.09;;;31.72;25.12
51243;BME280;37812;47.556;18.718;2022-07-06T12:19:06;99818.09;;;31.80;26.33
51243;BME280;37812;47.556;18.718;2022-07-06T12:21:34;99826.75;;;31.10;26.00
51243;BME280;37812;47.556;18.718;2022-07-06T12:24:00;99819.63;;;30.71;26.89
51243;BME280;37812;47.556;18.718;2022-07-06T12:26:28;99829.91;;;29.74;27.37
51243;BME280;37812;47.556;18.718;2022-07-06T12:29:08;99823.88;;;30.14;26.46
51243;BME280;37812;47.556;18.718;2022-07-06T12:31:43;99827.41;;;30.35;26.15
51243;BME280;37812;47.556;18.718;2022-07-06T12:34:24;99814.25;;;30.31;26.63
51243;BME280;37812;47.556;18.718;2022-07-06T12:36:54;99824.13;;;30.49;27.21
51243;BME280;37812;47.556;18.718;2022-07-06T12:39:22;99812.56;;;30.89;25.61
51243;BME280;37812;47.556;18.718;2022-07-06T12:44:25;99815.47;;;30.85;26.78
51243;BME280;37812;47.556;18.718;2022-07-06T12:47:08;99818.06;;;31.25;25.70
51243;BME280;37812;47.556;18.718;2022-07-06T12:49:39;99816.66;;;30.98;26.16
51243;BME280;37812;47.556;18.718;2022-07-06T12:52:11;99813.03;;;30.99;27.14
51243;BME280;37812;47.556;18.718;2022-07-06T12:54:49;99808.56;;;31.18;26.18
51243;BME280;37812;47.556;18.718;2022-07-06T12:59:45;99825.84;;;29.19;28.53
51243;BME280;37812;47.556;18.718;2022-07-06T13:05:02;99826.06;;;30.03;28.27
51243;BME280;37812;47.556;18.718;2022-07-06T13:07:29;99818.34;;;30.39;27.42
51243;BME280;37812;47.556;18.718;2022-07-06T13:09:58;99818.37;;;30.58;27.84
51243;BME280;37812;47.556;18.718;2022-07-06T13:12:24;99821.50;;;30.69;28.72
51243;BME280;37812;47.556;18.718;2022-07-06T13:14:51;99824.13;;;30.08;29.93
51243;BME280;37812;47.556;18.718;2022-07-06T13:17:17;99827.56;;;29.67;30.29